Time;durP1;ratioP1;P1;durP2;ratioP2;P2;SDS_P1;SDS_P2;PMS_P1;PMS_P2;Temp;Humidity;BMP_temperature;BMP_pressure;BME280_temperature;BME280_humidity;BME280_pressure;Samples;Min_cycle;Max_cycle;Signal;HPM_P1;HPM_P2
2023/05/09 00:00:26;;;;;;;4.07;3.60;;;9.60;88.30;;;;;;5218446;28;20457;-50
2023/05/09 00:02:57;;;;;;;2.90;2.80;;;9.60;89.30;;;;;;5220026;28;20853;-49
2023/05/09 00:05:28;;;;;;;3.17;3.07;;;9.60;90.00;;;;;;5218756;28;20214;-50
2023/05/09 00:07:59;;;;;;;4.20;3.37;;;9.50;90.40;;;;;;5220255;28;20175;-49
2023/05/09 00:10:29;;;;;;;8.13;3.07;;;9.50;90.80;;;;;;5222745;28;20796;-48
2023/05/09 00:13:00;;;;;;;3.43;3.23;;;9.50;91.10;;;;;;5218672;28;20896;-48
2023/05/09 00:15:31;;;;;;;8.80;3.47;;;9.40;91.60;;;;;;5225415;28;20206;-48
2023/05/09 00:18:01;;;;;;;5.50;3.83;;;9.40;92.20;;;;;;5218965;28;20257;-50
2023/05/09 00:20:32;;;;;;;6.80;3.17;;;9.40;92.50;;;;;;5219926;28;20203;-49
2023/05/09 00:23:04;;;;;;;4.80;3.30;;;9.30;93.00;;;;;;5221408;28;20174;-50
2023/05/09 00:25:34;;;;;;;3.80;3.50;;;9.30;93.40;;;;;;5224250;28;20445;-50
2023/05/09 00:28:05;;;;;;;3.60;3.40;;;9.30;93.60;;;;;;5225645;28;20460;-48
2023/05/09 00:30:36;;;;;;;3.50;3.20;;;9.20;94.10;;;;;;5224453;28;20206;-50
2023/05/09 00:33:06;;;;;;;3.47;2.90;;;9.30;94.40;;;;;;5220265;28;20266;-48
2023/05/09 00:35:37;;;;;;;9.60;3.63;;;9.20;94.60;;;;;;5219363;28;20206;-48
2023/05/09 00:38:07;;;;;;;6.53;3.30;;;9.20;94.80;;;;;;5222190;28;20296;-48
2023/05/09 00:40:38;;;;;;;3.43;3.13;;;9.20;94.90;;;;;;5222351;28;20207;-47
2023/05/09 00:43:09;;;;;;;4.70;4.03;;;9.20;95.10;;;;;;5228426;28;20198;-50
2023/05/09 00:45:39;;;;;;;3.80;2.97;;;9.20;95.30;;;;;;5219500;28;20193;-51
2023/05/09 00:48:11;;;;;;;3.77;3.47;;;9.20;95.70;;;;;;5202058;28;20274;-49
2023/05/09 00:50:42;;;;;;;3.43;3.20;;;9.20;95.60;;;;;;5219707;28;20563;-49
2023/05/09 00:53:13;;;;;;;4.60;3.37;;;9.10;95.80;;;;;;5221232;28;20183;-48
2023/05/09 00:55:44;;;;;;;3.83;3.53;;;9.10;96.20;;;;;;5220838;28;20969;-50
2023/05/09 00:58:15;;;;;;;11.33;3.10;;;9.10;96.20;;;;;;5217702;28;20440;-51
2023/05/09 01:00:46;;;;;;;4.43;2.87;;;9.10;96.20;;;;;;5236878;28;20218;-49
2023/05/09 01:03:17;;;;;;;5.87;3.30;;;9.10;96.20;;;;;;5202689;28;20444;-49
2023/05/09 01:06:03;;;;;;;4.03;3.70;;;9.10;96.30;;;;;;5203006;28;20430;-50
2023/05/09 01:09:10;;;;;;;3.40;3.20;;;9.10;96.20;;;;;;5216014;28;20262;-48
2023/05/09 01:11:45;;;;;;;4.80;3.00;;;9.00;96.50;;;;;;5217418;28;20437;-49
2023/05/09 01:14:31;;;;;;;3.83;3.50;;;9.00;96.30;;;;;;5218835;28;20441;-48
2023/05/09 01:17:15;;;;;;;3.43;3.13;;;9.10;96.40;;;;;;5217799;28;20496;-49
2023/05/09 01:20:09;;;;;;;3.40;3.20;;;9.10;96.50;;;;;;5219495;28;20453;-48
2023/05/09 01:22:45;;;;;;;2.73;2.43;;;9.00;96.20;;;;;;5221424;28;20433;-48
2023/05/09 01:25:20;;;;;;;3.30;3.10;;;9.10;96.10;;;;;;5218534;28;20449;-49
2023/05/09 01:28:17;;;;;;;3.50;2.70;;;9.00;96.00;;;;;;5219927;28;20487;-48
2023/05/09 01:30:52;;;;;;;4.73;3.13;;;9.00;96.10;;;;;;5219921;28;20457;-49
2023/05/09 01:33:25;;;;;;;2.53;2.33;;;9.00;95.90;;;;;;5219425;28;20432;-49
2023/05/09 01:36:02;;;;;;;2.77;2.57;;;8.90;95.90;;;;;;5204315;28;20515;-49
2023/05/09 01:38:36;;;;;;;3.93;3.10;;;9.00;95.90;;;;;;5221018;28;20491;-50
2023/05/09 01:41:08;;;;;;;4.43;2.90;;;8.90;95.50;;;;;;5221099;28;20503;-49
2023/05/09 01:43:41;;;;;;;3.10;2.80;;;8.90;95.50;;;;;;5220540;28;20433;-49
2023/05/09 01:46:15;;;;;;;2.83;2.50;;;8.90;95.10;;;;;;5220027;28;20448;-48
2023/05/09 01:48:48;;;;;;;7.03;3.20;;;8.90;94.60;;;;;;5221430;28;20523;-49
2023/05/09 01:51:20;;;;;;;2.70;2.20;;;9.00;94.30;;;;;;5216124;28;20501;-48
2023/05/09 01:53:53;;;;;;;4.97;2.43;;;8.90;94.30;;;;;;5218051;28;20952;-49
2023/05/09 01:56:25;;;;;;;2.67;2.47;;;9.00;93.90;;;;;;5203284;28;20575;-50
2023/05/09 01:58:56;;;;;;;2.73;2.53;;;9.00;93.40;;;;;;5211724;28;20436;-49
2023/05/09 02:01:28;;;;;;;3.10;2.90;;;9.00;93.40;;;;;;5217482;28;20471;-50
2023/05/09 02:03:59;;;;;;;3.00;2.60;;;9.00;92.70;;;;;;5219669;28;20429;-49
2023/05/09 02:06:31;;;;;;;3.23;2.10;;;9.00;92.20;;;;;;5220873;28;20433;-48
2023/05/09 02:09:02;;;;;;;2.40;2.30;;;9.00;91.40;;;;;;5221285;28;20532;-46
2023/05/09 02:11:33;;;;;;;2.70;2.47;;;9.10;90.90;;;;;;5222733;28;20516;-49
2023/05/09 02:14:03;;;;;;;5.13;2.40;;;9.00;90.40;;;;;;5222611;28;20437;-51
2023/05/09 02:16:34;;;;;;;4.23;2.67;;;9.10;90.00;;;;;;5222488;28;20678;-49
2023/05/09 02:19:05;;;;;;;3.13;2.40;;;9.00;89.60;;;;;;5225637;28;20178;-49
2023/05/09 02:21:36;;;;;;;2.73;2.53;;;9.00;88.80;;;;;;5220284;28;20237;-49
2023/05/09 02:24:07;;;;;;;2.47;1.77;;;9.10;88.10;;;;;;5225524;28;20262;-48
2023/05/09 02:26:38;;;;;;;5.20;2.40;;;9.00;86.80;;;;;;5223988;28;20190;-48
2023/05/09 02:29:10;;;;;;;2.90;2.63;;;9.00;85.90;;;;;;5226672;28;20222;-48
2023/05/09 02:31:42;;;;;;;2.33;2.13;;;9.00;86.20;;;;;;5220289;28;20463;-50
2023/05/09 02:34:13;;;;;;;5.47;2.20;;;9.00;85.90;;;;;;5225998;28;20437;-51
2023/05/09 02:36:45;;;;;;;2.53;2.43;;;9.00;85.40;;;;;;5220573;28;20488;-48
2023/05/09 02:39:16;;;;;;;3.20;2.20;;;9.00;84.80;;;;;;5223895;28;20441;-50
2023/05/09 02:41:49;;;;;;;3.80;2.33;;;9.00;84.20;;;;;;5222909;28;20433;-49
2023/05/09 02:44:20;;;;;;;2.80;2.07;;;9.00;83.90;;;;;;5223433;28;20191;-50
2023/05/09 02:46:50;;;;;;;3.47;2.30;;;9.00;83.10;;;;;;5222050;28;20434;-48
2023/05/09 02:49:21;;;;;;;2.30;2.20;;;9.00;83.30;;;;;;5221466;28;20218;-48
2023/05/09 02:51:51;;;;;;;4.80;2.53;;;9.00;83.00;;;;;;5221752;28;20202;-48
2023/05/09 02:54:22;;;;;;;2.87;2.60;;;9.00;82.90;;;;;;5207653;28;20183;-48
2023/05/09 02:56:53;;;;;;;2.47;2.37;;;9.00;82.50;;;;;;5219494;28;20401;-49
2023/05/09 02:59:24;;;;;;;9.50;2.23;;;9.00;82.00;;;;;;5218239;28;20196;-48
2023/05/09 03:01:55;;;;;;;3.43;2.27;;;9.10;81.50;;;;;;5219926;28;20183;-51
2023/05/09 03:04:26;;;;;;;2.80;2.60;;;9.10;81.60;;;;;;5220542;28;20666;-48
2023/05/09 03:06:57;;;;;;;2.97;2.13;;;9.10;81.70;;;;;;5220871;28;20541;-48
2023/05/09 03:09:27;;;;;;;2.93;2.30;;;9.00;81.50;;;;;;5221728;28;20207;-48
2023/05/09 03:11:58;;;;;;;1.90;1.80;;;9.00;81.70;;;;;;5221934;28;20179;-48
2023/05/09 03:14:28;;;;;;;4.70;2.77;;;9.00;82.10;;;;;;5224184;28;20238;-48
2023/05/09 03:16:59;;;;;;;2.47;2.37;;;8.90;82.40;;;;;;5220124;28;20256;-47
2023/05/09 03:19:31;;;;;;;2.10;2.00;;;8.90;82.70;;;;;;5216827;28;20287;-49
2023/05/09 03:22:01;;;;;;;2.77;2.57;;;8.90;82.20;;;;;;5220642;28;20202;-50
2023/05/09 03:24:32;;;;;;;2.43;2.23;;;8.90;82.20;;;;;;5221895;28;20445;-48
2023/05/09 03:27:03;;;;;;;3.70;2.40;;;8.90;82.10;;;;;;5221180;28;20191;-49
2023/05/09 03:29:33;;;;;;;3.17;2.40;;;8.90;82.50;;;;;;5220636;28;20290;-47
2023/05/09 03:32:04;;;;;;;5.90;2.40;;;8.90;82.30;;;;;;5201397;28;20190;-49
2023/05/09 03:34:35;;;;;;;2.30;2.07;;;8.90;82.20;;;;;;5225037;28;20686;-48
2023/05/09 03:37:05;;;;;;;2.27;2.07;;;8.90;82.30;;;;;;5219244;28;20471;-50
2023/05/09 03:39:36;;;;;;;2.83;1.97;;;8.90;82.00;;;;;;5219502;28;20269;-49
2023/05/09 03:42:06;;;;;;;7.93;2.90;;;8.90;82.60;;;;;;5218486;28;20496;-48
2023/05/09 03:44:37;;;;;;;4.80;2.90;;;8.90;82.70;;;;;;5222452;28;20179;-48
2023/05/09 03:47:08;;;;;;;2.20;2.03;;;8.80;82.70;;;;;;5219936;28;20613;-49
2023/05/09 03:49:38;;;;;;;2.50;2.40;;;8.80;82.90;;;;;;5219035;28;20214;-47
2023/05/09 03:52:09;;;;;;;4.83;2.67;;;8.80;83.80;;;;;;5224764;28;20225;-47
2023/05/09 03:54:40;;;;;;;1.90;1.83;;;8.80;83.70;;;;;;5217924;28;20191;-48
2023/05/09 03:57:10;;;;;;;2.47;2.37;;;8.80;84.10;;;;;;5224062;28;20476;-48
2023/05/09 03:59:41;;;;;;;3.40;2.80;;;8.80;84.30;;;;;;5222087;28;20320;-50
2023/05/09 04:02:12;;;;;;;3.53;2.10;;;8.80;84.80;;;;;;5220266;28;20207;-49
2023/05/09 04:04:43;;;;;;;4.80;2.80;;;8.80;85.80;;;;;;5218922;28;20246;-48
2023/05/09 04:07:14;;;;;;;27.43;3.33;;;8.80;85.90;;;;;;5205535;28;20265;-48
2023/05/09 04:09:44;;;;;;;25.10;3.13;;;8.70;86.40;;;;;;5191214;28;20561;-48
2023/05/09 04:12:15;;;;;;;2.47;2.30;;;8.80;86.10;;;;;;5221600;28;20251;-48
2023/05/09 04:14:46;;;;;;;2.37;2.27;;;8.80;86.60;;;;;;5225431;28;20194;-48
2023/05/09 04:17:17;;;;;;;5.07;2.43;;;8.80;86.90;;;;;;5219226;28;20220;-50
2023/05/09 04:19:47;;;;;;;5.07;3.37;;;8.80;86.60;;;;;;5226019;28;20267;-47
2023/05/09 04:22:18;;;;;;;2.97;2.70;;;8.80;86.90;;;;;;5227100;28;20512;-46
2023/05/09 04:24:49;;;;;;;3.77;3.00;;;8.80;87.30;;;;;;5221316;28;20189;-47
2023/05/09 04:27:20;;;;;;;3.50;3.20;;;8.90;87.50;;;;;;5224558;28;20190;-48
2023/05/09 04:29:52;;;;;;;3.47;3.20;;;8.90;87.30;;;;;;5221646;28;20457;-48
2023/05/09 04:32:22;;;;;;;4.70;2.80;;;9.00;87.40;;;;;;5216808;28;20452;-48
2023/05/09 04:34:53;;;;;;;3.63;2.90;;;9.00;87.30;;;;;;5221270;28;20438;-48
2023/05/09 04:37:24;;;;;;;3.33;2.63;;;9.00;87.80;;;;;;5221343;28;20215;-49
2023/05/09 04:39:55;;;;;;;3.17;2.97;;;9.00;87.90;;;;;;5217754;28;20777;-49
2023/05/09 04:42:25;;;;;;;3.13;2.80;;;9.10;87.60;;;;;;5228484;28;20449;-50
2023/05/09 04:44:56;;;;;;;3.40;3.13;;;9.40;86.30;;;;;;5215973;28;20198;-47
2023/05/09 04:47:26;;;;;;;7.93;3.37;;;9.90;84.40;;;;;;5218894;28;20194;-49
2023/05/09 04:49:57;;;;;;;7.20;2.83;;;10.60;78.50;;;;;;5221131;28;20218;-48
2023/05/09 04:52:28;;;;;;;6.40;3.03;;;11.20;73.20;;;;;;5221970;28;20179;-48
2023/05/09 04:54:58;;;;;;;4.63;3.10;;;11.60;70.20;;;;;;5224558;28;20212;-49
2023/05/09 04:57:29;;;;;;;4.17;2.57;;;12.00;67.50;;;;;;5223778;28;20222;-50
2023/05/09 04:59:59;;;;;;;5.67;3.00;;;12.50;64.50;;;;;;5222657;28;20555;-50
2023/05/09 05:02:30;;;;;;;3.60;2.97;;;13.00;60.90;;;;;;5219454;28;20186;-48
2023/05/09 05:05:01;;;;;;;7.27;3.10;;;13.50;58.80;;;;;;5222894;28;20655;-49
2023/05/09 05:07:31;;;;;;;3.37;3.07;;;13.70;57.00;;;;;;5223537;28;20202;-50
2023/05/09 05:10:02;;;;;;;4.77;3.37;;;13.80;55.80;;;;;;5221066;28;20210;-49
2023/05/09 05:12:32;;;;;;;3.33;2.93;;;14.20;54.50;;;;;;5224144;28;20187;-49
2023/05/09 05:15:03;;;;;;;3.97;3.60;;;14.40;53.20;;;;;;5222791;28;20263;-49
2023/05/09 05:17:34;;;;;;;4.73;3.00;;;15.00;52.10;;;;;;5218523;28;20344;-49
2023/05/09 05:20:09;;;;;;;10.80;2.97;;;15.80;50.20;;;;;;5218787;28;20933;-49
2023/05/09 05:22:39;;;;;;;2.50;2.13;;;16.60;47.80;;;;;;5221563;28;20193;-50
2023/05/09 05:25:10;;;;;;;2.70;2.60;;;17.80;44.60;;;;;;5222855;28;20425;-49
2023/05/09 05:27:41;;;;;;;2.63;2.43;;;18.40;42.80;;;;;;5221853;28;20190;-51
2023/05/09 05:30:14;;;;;;;2.77;2.57;;;19.20;40.90;;;;;;5220589;28;20682;-49
2023/05/09 05:32:45;;;;;;;6.63;2.40;;;19.10;39.70;;;;;;5220135;28;20265;-48
2023/05/09 05:35:16;;;;;;;2.83;2.30;;;19.20;38.60;;;;;;5217984;28;20564;-49
2023/05/09 05:37:46;;;;;;;6.30;3.20;;;19.70;38.00;;;;;;5216977;28;20731;-48
2023/05/09 05:40:17;;;;;;;2.30;2.20;;;19.60;37.40;;;;;;5221042;28;20728;-49
2023/05/09 05:42:48;;;;;;;6.43;2.43;;;20.00;37.10;;;;;;5220180;28;20175;-51
2023/05/09 05:45:19;;;;;;;4.10;2.60;;;20.90;36.70;;;;;;5221578;28;20263;-49
2023/05/09 05:47:49;;;;;;;3.47;2.73;;;22.20;35.40;;;;;;5225835;28;20190;-50
2023/05/09 05:50:20;;;;;;;6.47;3.03;;;23.60;32.40;;;;;;5218090;28;20625;-50
2023/05/09 05:52:50;;;;;;;3.93;2.60;;;24.30;31.20;;;;;;5220963;28;20262;-51
2023/05/09 05:55:21;;;;;;;2.70;2.30;;;24.20;30.50;;;;;;5224979;28;20187;-48
2023/05/09 05:57:52;;;;;;;6.20;2.20;;;23.90;30.00;;;;;;5220852;28;20206;-50
2023/05/09 06:00:22;;;;;;;2.50;2.30;;;23.20;30.40;;;;;;5221987;28;20432;-50
2023/05/09 06:02:53;;;;;;;2.93;2.73;;;23.00;30.80;;;;;;5224605;28;20662;-50
2023/05/09 06:05:24;;;;;;;6.83;3.20;;;22.60;31.20;;;;;;5224744;28;20183;-49
2023/05/09 06:07:54;;;;;;;3.30;2.47;;;22.10;31.30;;;;;;5222342;28;20178;-50
2023/05/09 06:10:25;;;;;;;3.27;2.60;;;22.50;32.00;;;;;;5223141;28;20272;-51
2023/05/09 06:12:55;;;;;;;7.90;2.63;;;23.30;30.90;;;;;;5225127;28;20190;-51
2023/05/09 06:15:26;;;;;;;3.73;2.60;;;23.40;30.30;;;;;;5216497;28;20180;-52
2023/05/09 06:17:57;;;;;;;3.70;2.90;;;23.70;30.40;;;;;;5226085;28;20201;-49
2023/05/09 06:20:28;;;;;;;5.03;2.70;;;23.50;30.20;;;;;;5227577;28;20548;-53
2023/05/09 06:22:59;;;;;;;5.00;2.40;;;23.10;31.20;;;;;;5225038;28;20478;-54
2023/05/09 06:25:29;;;;;;;4.67;2.30;;;23.20;31.30;;;;;;5228701;28;20268;-50
2023/05/09 06:28:00;;;;;;;2.80;2.60;;;22.80;31.30;;;;;;5228933;28;20190;-50
2023/05/09 06:30:30;;;;;;;2.83;2.70;;;22.70;30.60;;;;;;5226432;28;20332;-54
2023/05/09 06:33:01;;;;;;;11.40;2.50;;;22.20;31.30;;;;;;5223322;28;20213;-51
2023/05/09 06:35:32;;;;;;;2.40;2.30;;;21.20;31.80;;;;;;5226977;28;20235;-50
2023/05/09 06:38:02;;;;;;;4.37;2.20;;;21.20;32.70;;;;;;5226450;28;20186;-50
2023/05/09 06:40:33;;;;;;;4.17;2.90;;;20.90;33.50;;;;;;5224727;28;20306;-49
2023/05/09 06:43:03;;;;;;;2.60;2.50;;;21.30;33.10;;;;;;5230331;28;20682;-50
2023/05/09 06:45:34;;;;;;;5.33;2.90;;;21.40;33.20;;;;;;5233916;28;20237;-51
2023/05/09 06:48:05;;;;;;;2.90;2.23;;;21.90;32.80;;;;;;5224628;28;20194;-51
2023/05/09 06:50:36;;;;;;;2.10;2.00;;;22.10;31.90;;;;;;5220697;28;20678;-52
2023/05/09 06:53:07;;;;;;;6.10;2.20;;;21.80;31.70;;;;;;5228702;28;20443;-52
2023/05/09 06:55:38;;;;;;;10.13;2.60;;;21.20;32.10;;;;;;5223427;28;20713;-54
2023/05/09 06:58:09;;;;;;;3.20;2.70;;;20.90;32.40;;;;;;5226984;28;20183;-51
2023/05/09 07:00:40;;;;;;;5.40;3.00;;;20.60;32.80;;;;;;5218646;28;20225;-51
2023/05/09 07:03:11;;;;;;;2.93;2.63;;;21.30;32.60;;;;;;5214536;28;20429;-54
2023/05/09 07:05:42;;;;;;;2.83;2.63;;;21.50;31.70;;;;;;5213011;28;20245;-52
2023/05/09 07:08:13;;;;;;;9.93;3.10;;;21.70;31.80;;;;;;5224984;28;20449;-52
2023/05/09 07:10:44;;;;;;;2.70;2.50;;;21.30;32.10;;;;;;5226869;28;20217;-52
2023/05/09 07:13:14;;;;;;;2.70;2.50;;;21.20;32.50;;;;;;5221820;28;20190;-51
2023/05/09 07:15:45;;;;;;;6.00;2.70;;;21.40;32.10;;;;;;5216912;28;20222;-51
2023/05/09 07:18:16;;;;;;;5.63;2.60;;;21.90;32.00;;;;;;5221326;28;20604;-50
2023/05/09 07:20:46;;;;;;;3.50;2.80;;;22.70;31.50;;;;;;5227481;28;20215;-50
2023/05/09 07:23:17;;;;;;;5.30;2.50;;;22.70;30.10;;;;;;5215850;28;20339;-50
2023/05/09 07:25:48;;;;;;;5.33;2.70;;;22.70;30.10;;;;;;5222170;28;20219;-52
2023/05/09 07:28:18;;;;;;;3.47;2.90;;;22.10;30.30;;;;;;5225664;28;20194;-51
2023/05/09 07:30:49;;;;;;;3.00;2.80;;;21.40;30.70;;;;;;5217136;28;20228;-52
2023/05/09 07:33:19;;;;;;;5.97;3.07;;;21.30;31.20;;;;;;5226829;28;20267;-53
2023/05/09 07:35:51;;;;;;;2.43;2.23;;;21.80;30.80;;;;;;5227805;28;20222;-53
2023/05/09 07:38:22;;;;;;;2.93;2.57;;;21.90;29.90;;;;;;5220850;28;20179;-51
2023/05/09 07:40:52;;;;;;;2.97;2.50;;;21.60;30.40;;;;;;5225578;28;20452;-53
2023/05/09 07:43:23;;;;;;;8.23;2.97;;;21.90;30.40;;;;;;5217242;28;20190;-52
2023/05/09 07:45:54;;;;;;;2.83;2.50;;;22.20;30.30;;;;;;5223789;28;20643;-51
2023/05/09 07:48:25;;;;;;;3.67;2.87;;;23.00;29.70;;;;;;5227121;28;20186;-48
2023/05/09 07:50:55;;;;;;;3.90;2.80;;;24.00;28.90;;;;;;5228336;28;20214;-52
2023/05/09 07:53:26;;;;;;;2.73;2.50;;;23.20;28.80;;;;;;5229250;28;20511;-51
2023/05/09 07:55:57;;;;;;;2.87;2.70;;;22.90;29.00;;;;;;5228859;28;20215;-53
2023/05/09 07:58:28;;;;;;;2.23;2.13;;;22.40;28.90;;;;;;5215576;28;20633;-51
2023/05/09 08:00:58;;;;;;;6.60;2.30;;;22.00;29.60;;;;;;5203382;28;20464;-50
2023/05/09 08:03:29;;;;;;;5.80;2.57;;;21.90;30.00;;;;;;5216741;28;20183;-50
2023/05/09 08:06:00;;;;;;;3.47;2.20;;;22.70;29.40;;;;;;5216216;28;20636;-50
2023/05/09 08:08:30;;;;;;;2.30;2.20;;;22.80;28.80;;;;;;5219130;28;20195;-49
2023/05/09 08:11:01;;;;;;;3.43;2.47;;;22.70;28.50;;;;;;5219034;28;20334;-51
2023/05/09 08:13:31;;;;;;;4.80;2.50;;;22.60;29.10;;;;;;5205686;28;20199;-50
2023/05/09 08:16:02;;;;;;;5.53;2.87;;;22.70;28.80;;;;;;5223899;28;20213;-52
2023/05/09 08:18:33;;;;;;;2.83;2.00;;;22.20;29.20;;;;;;5223321;28;20182;-50
2023/05/09 08:21:04;;;;;;;3.30;2.50;;;21.60;29.80;;;;;;5217128;28;20206;-51
2023/05/09 08:23:34;;;;;;;4.57;2.93;;;21.60;30.30;;;;;;5226708;28;20179;-49
2023/05/09 08:26:05;;;;;;;2.87;2.10;;;21.70;29.90;;;;;;5234425;28;20206;-51
2023/05/09 08:28:36;;;;;;;2.80;2.60;;;20.50;30.20;;;;;;5246019;28;20266;-51
2023/05/09 08:31:06;;;;;;;3.30;2.37;;;19.40;31.80;;;;;;5226961;28;20606;-50
2023/05/09 08:33:37;;;;;;;2.30;2.10;;;19.10;32.50;;;;;;5217947;28;20198;-49
2023/05/09 08:36:08;;;;;;;2.60;2.50;;;18.80;32.30;;;;;;5218462;28;20579;-51
2023/05/09 08:38:39;;;;;;;2.47;2.27;;;18.20;32.90;;;;;;5211653;28;20184;-49
2023/05/09 08:41:10;;;;;;;2.63;2.43;;;18.00;34.00;;;;;;5223277;28;20215;-53
2023/05/09 08:43:40;;;;;;;2.63;2.40;;;18.30;34.20;;;;;;5243785;28;20792;-50
2023/05/09 08:46:12;;;;;;;2.43;2.23;;;18.20;34.10;;;;;;5232373;28;20562;-50
2023/05/09 08:48:43;;;;;;;5.40;2.70;;;18.60;34.30;;;;;;5231933;28;20185;-49
2023/05/09 08:51:16;;;;;;;2.50;2.40;;;19.20;33.90;;;;;;5229943;22;20805;-50
2023/05/09 08:53:47;;;;;;;3.97;2.10;;;19.50;33.50;;;;;;5222773;28;20183;-49
2023/05/09 08:56:18;;;;;;;2.93;2.20;;;18.80;33.10;;;;;;5225744;28;20465;-49
2023/05/09 08:58:50;;;;;;;8.97;2.20;;;18.50;34.00;;;;;;5224169;28;20490;-49
2023/05/09 09:01:22;;;;;;;7.93;2.60;;;17.60;34.90;;;;;;5220723;28;20221;-49
2023/05/09 09:03:53;;;;;;;3.27;2.40;;;17.00;36.00;;;;;;5223364;28;20867;-50
2023/05/09 09:06:24;;;;;;;2.93;2.67;;;16.50;36.70;;;;;;5223109;28;20478;-50
2023/05/09 09:08:57;;;;;;;6.87;2.40;;;16.00;37.00;;;;;;5210676;28;20548;-49
2023/05/09 09:11:29;;;;;;;4.67;2.53;;;15.70;37.60;;;;;;5208935;28;20462;-50
2023/05/09 09:14:04;;;;;;;3.37;2.63;;;15.80;38.90;;;;;;5206281;28;20468;-49
2023/05/09 09:16:36;;;;;;;2.03;1.73;;;16.00;38.80;;;;;;5220811;28;20540;-50
2023/05/09 09:19:12;;;;;;;3.67;2.90;;;16.10;38.40;;;;;;5226226;28;20452;-51
2023/05/09 09:21:45;;;;;;;7.80;2.83;;;16.10;37.90;;;;;;5225995;28;20539;-50
2023/05/09 09:24:21;;;;;;;3.30;3.10;;;16.10;38.30;;;;;;5225114;28;20437;-51
2023/05/09 09:26:52;;;;;;;5.10;2.93;;;16.10;38.40;;;;;;5216897;28;20441;-49
2023/05/09 09:29:27;;;;;;;2.37;2.23;;;16.10;38.20;;;;;;5224272;28;20472;-50
2023/05/09 09:32:01;;;;;;;2.33;2.03;;;16.00;38.40;;;;;;5228737;28;20637;-50
2023/05/09 09:34:32;;;;;;;3.30;2.80;;;16.00;37.50;;;;;;5234299;28;20432;-50
2023/05/09 09:37:05;;;;;;;3.33;2.50;;;15.90;37.40;;;;;;5231766;28;21050;-49
2023/05/09 09:39:36;;;;;;;7.70;2.63;;;15.90;37.70;;;;;;5230467;28;20183;-52
2023/05/09 09:42:12;;;;;;;2.67;2.50;;;16.00;37.80;;;;;;5228346;28;20432;-48
2023/05/09 09:44:43;;;;;;;1.83;1.73;;;16.10;38.20;;;;;;5228944;28;20178;-49
2023/05/09 09:47:13;;;;;;;5.83;2.20;;;16.10;38.20;;;;;;5231471;28;20425;-51
2023/05/09 09:49:46;;;;;;;2.20;2.10;;;16.30;37.70;;;;;;5227977;28;20209;-53
2023/05/09 09:52:24;;;;;;;3.77;2.10;;;16.30;37.70;;;;;;5216000;28;20233;-52
2023/05/09 09:54:55;;;;;;;5.23;2.53;;;16.30;38.00;;;;;;5210686;28;20875;-49
2023/05/09 09:57:40;;;;;;;2.20;2.10;;;16.00;37.80;;;;;;5214032;28;20464;-51
2023/05/09 10:00:13;;;;;;;2.97;2.37;;;16.00;38.00;;;;;;5220222;28;20901;-51
2023/05/09 10:02:54;;;;;;;1.63;1.63;;;16.10;37.80;;;;;;5227959;28;20434;-51
2023/05/09 10:05:27;;;;;;;2.70;1.90;;;16.20;37.20;;;;;;5226089;28;20739;-52
2023/05/09 10:08:06;;;;;;;2.40;2.20;;;16.40;37.70;;;;;;5238553;28;20472;-48
2023/05/09 10:10:37;;;;;;;9.10;2.73;;;16.50;36.70;;;;;;5220094;28;20463;-50
2023/05/09 10:13:11;;;;;;;2.03;1.93;;;16.50;37.10;;;;;;5224320;28;20429;-49
2023/05/09 10:15:43;;;;;;;2.60;2.40;;;16.50;37.00;;;;;;5227505;28;20763;-50
2023/05/09 10:18:18;;;;;;;3.70;2.03;;;16.60;37.50;;;;;;5223705;28;20434;-50
2023/05/09 10:20:49;;;;;;;2.40;1.70;;;16.60;36.20;;;;;;5229060;28;20507;-50
2023/05/09 10:23:21;;;;;;;1.57;1.57;;;16.60;36.40;;;;;;5227205;28;20500;-57
2023/05/09 10:26:21;;;;;;;2.30;1.80;;;16.40;36.30;;;;;;5225223;28;20183;-51
2023/05/09 10:28:54;;;;;;;3.00;1.87;;;16.60;36.70;;;;;;5227119;28;20425;-51
2023/05/09 10:31:27;;;;;;;4.23;2.13;;;16.50;36.20;;;;;;5230833;28;20456;-54
2023/05/09 10:34:03;;;;;;;3.00;2.23;;;16.60;36.00;;;;;;5228239;28;20433;-49
2023/05/09 10:36:34;;;;;;;2.07;1.70;;;16.60;34.80;;;;;;5222949;28;20461;-49
2023/05/09 10:39:05;;;;;;;2.10;1.97;;;16.70;35.40;;;;;;5223899;28;20431;-48
2023/05/09 10:41:37;;;;;;;1.70;1.70;;;16.80;35.60;;;;;;5224218;28;20211;-50
2023/05/09 10:44:09;;;;;;;4.83;2.37;;;17.00;35.00;;;;;;5226305;28;20209;-49
2023/05/09 10:46:40;;;;;;;1.80;1.70;;;17.00;35.40;;;;;;5227620;28;21064;-50
2023/05/09 10:49:12;;;;;;;2.53;2.40;;;17.20;35.30;;;;;;5226992;28;20463;-50
2023/05/09 10:51:42;;;;;;;1.63;1.53;;;17.30;35.20;;;;;;5224082;28;20523;-49
2023/05/09 10:54:24;;;;;;;1.83;1.80;;;17.40;34.90;;;;;;5222889;28;20790;-50
2023/05/09 10:56:55;;;;;;;6.83;2.30;;;17.30;34.00;;;;;;5226711;28;20226;-50
2023/05/09 10:59:36;;;;;;;2.10;2.00;;;17.30;34.50;;;;;;5222715;28;20439;-54
2023/05/09 11:02:12;;;;;;;1.80;1.70;;;17.30;33.90;;;;;;5223581;28;20422;-49
2023/05/09 11:04:44;;;;;;;2.47;2.00;;;17.30;33.60;;;;;;5220911;28;20421;-50
2023/05/09 11:07:25;;;;;;;6.20;2.30;;;17.30;34.30;;;;;;5224505;28;20433;-51
2023/05/09 11:10:16;;;;;;;6.63;1.70;;;17.20;34.50;;;;;;5235757;28;20487;-50
2023/05/09 11:12:58;;;;;;;2.13;2.13;;;17.20;35.00;;;;;;5220291;28;20433;-49
2023/05/09 11:15:29;;;;;;;2.80;2.47;;;17.30;35.30;;;;;;5228010;28;20450;-51
2023/05/09 11:18:08;;;;;;;2.60;2.43;;;17.40;35.00;;;;;;5221663;28;20887;-49
2023/05/09 11:20:45;;;;;;;3.20;2.20;;;17.60;34.60;;;;;;5207642;28;20206;-49
2023/05/09 11:23:18;;;;;;;2.60;2.40;;;17.80;34.30;;;;;;5221037;28;20928;-52
2023/05/09 11:25:49;;;;;;;2.40;2.20;;;17.80;34.40;;;;;;5215005;28;20443;-50
2023/05/09 11:28:27;;;;;;;1.97;1.87;;;17.90;34.20;;;;;;5226138;28;20443;-50
2023/05/09 11:31:15;;;;;;;2.70;2.10;;;17.90;34.90;;;;;;5221553;28;20197;-50
2023/05/09 11:33:53;;;;;;;2.40;1.70;;;17.60;34.30;;;;;;5221047;28;20452;-49
2023/05/09 11:36:30;;;;;;;1.70;1.60;;;17.50;34.00;;;;;;5212671;28;20824;-52
2023/05/09 11:39:05;;;;;;;4.13;2.50;;;17.40;33.50;;;;;;5214528;28;20499;-48
2023/05/09 11:41:45;;;;;;;1.43;1.33;;;17.40;34.40;;;;;;5225416;28;20445;-53
2023/05/09 11:44:18;;;;;;;4.83;2.07;;;17.50;34.50;;;;;;5229367;28;20429;-52
2023/05/09 11:46:49;;;;;;;1.57;1.57;;;17.80;34.70;;;;;;5222999;28;20437;-50
2023/05/09 11:49:19;;;;;;;1.80;1.80;;;17.90;33.30;;;;;;5217214;28;20433;-49
2023/05/09 11:51:50;;;;;;;2.60;2.40;;;18.00;33.20;;;;;;5225024;28;20211;-53
2023/05/09 11:54:23;;;;;;;4.00;2.47;;;18.00;33.50;;;;;;5222323;28;20186;-50
2023/05/09 11:56:55;;;;;;;2.50;1.97;;;18.10;33.40;;;;;;5217061;28;20962;-49
2023/05/09 11:59:27;;;;;;;2.17;1.83;;;18.30;33.40;;;;;;5220187;28;20440;-48
2023/05/09 12:02:03;;;;;;;2.80;2.03;;;18.20;32.90;;;;;;5235406;28;20487;-50
2023/05/09 12:04:35;;;;;;;2.33;2.20;;;18.00;34.00;;;;;;5224548;28;20528;-48
2023/05/09 12:07:05;;;;;;;6.00;2.13;;;18.00;34.30;;;;;;5221987;28;20434;-50
2023/05/09 12:09:39;;;;;;;2.83;1.70;;;18.00;34.00;;;;;;5224399;28;20436;-50
2023/05/09 12:12:13;;;;;;;1.90;1.80;;;18.10;34.00;;;;;;5227999;28;20190;-50
2023/05/09 12:14:43;;;;;;;5.70;1.60;;;18.10;34.50;;;;;;5227256;28;20418;-50
2023/05/09 12:17:14;;;;;;;2.03;2.03;;;18.30;33.90;;;;;;5227327;28;20468;-50
2023/05/09 12:19:45;;;;;;;3.53;1.70;;;18.40;33.40;;;;;;5224884;28;20237;-52
2023/05/09 12:22:15;;;;;;;4.83;2.27;;;18.30;33.00;;;;;;5221415;28;20207;-52
2023/05/09 12:24:48;;;;;;;2.67;2.00;;;18.20;33.10;;;;;;5224372;28;20206;-52
2023/05/09 12:27:19;;;;;;;3.70;2.03;;;18.10;33.20;;;;;;5222226;28;20536;-50
2023/05/09 12:29:50;;;;;;;5.80;1.73;;;18.10;33.50;;;;;;5224054;28;20453;-53
2023/05/09 12:32:21;;;;;;;3.20;2.30;;;18.20;33.50;;;;;;5230458;28;20200;-50
2023/05/09 12:34:52;;;;;;;7.70;2.10;;;18.20;33.20;;;;;;5223269;28;20811;-49
2023/05/09 12:37:23;;;;;;;1.50;1.50;;;18.10;33.10;;;;;;5228581;28;20234;-49
2023/05/09 12:40:03;;;;;;;11.03;2.20;;;18.10;33.00;;;;;;5223637;28;20492;-49
2023/05/09 12:42:35;;;;;;;3.40;1.57;;;18.00;33.70;;;;;;5219599;28;20178;-50
2023/05/09 12:45:09;;;;;;;1.83;1.67;;;17.90;34.00;;;;;;5230815;28;20799;-49
2023/05/09 12:47:44;;;;;;;3.63;1.80;;;18.00;34.10;;;;;;5221311;28;20448;-49
2023/05/09 12:50:15;;;;;;;5.40;1.77;;;18.10;34.00;;;;;;5230008;28;20497;-49
2023/05/09 12:52:50;;;;;;;11.03;2.00;;;18.10;33.80;;;;;;5228831;28;20438;-49
2023/05/09 12:55:20;;;;;;;14.43;1.80;;;18.10;34.00;;;;;;5225695;28;20404;-49
2023/05/09 12:58:02;;;;;;;2.00;1.87;;;18.30;34.30;;;;;;5219872;28;20469;-51
2023/05/09 13:00:43;;;;;;;2.30;2.10;;;18.30;34.20;;;;;;5227431;28;20637;-50
2023/05/09 13:03:25;;;;;;;4.83;2.03;;;18.30;34.20;;;;;;5224293;28;20436;-51
2023/05/09 13:06:00;;;;;;;3.67;2.40;;;18.30;33.90;;;;;;5225921;28;21155;-53
2023/05/09 13:08:31;;;;;;;4.47;2.70;;;18.30;34.00;;;;;;5218662;28;21025;-50
2023/05/09 13:11:02;;;;;;;2.73;2.53;;;18.30;33.40;;;;;;5218922;28;20457;-50
2023/05/09 13:13:32;;;;;;;7.90;1.97;;;18.30;33.20;;;;;;5222781;28;20317;-50
2023/05/09 13:16:04;;;;;;;2.07;1.97;;;18.30;33.20;;;;;;5220749;28;20225;-51